createdAt,value
2018-09-30T00:00:31.819Z,69.91
2018-09-30T00:03:04.079Z,69.30
2018-09-30T00:05:36.441Z,69.82
2018-09-30T00:08:08.693Z,69.48
2018-09-30T00:10:41.022Z,69.33
2018-09-30T00:13:13.373Z,70.01
2018-09-30T00:15:45.765Z,70.00
2018-09-30T00:18:18.041Z,69.02
2018-09-30T00:20:50.320Z,69.44
2018-09-30T00:23:22.781Z,70.13
2018-09-30T00:26:00.788Z,70.08
2018-09-30T00:28:33.152Z,70.44
2018-09-30T00:31:05.523Z,70.49
2018-09-30T00:33:43.279Z,69.91
2018-09-30T00:36:15.631Z,69.93
2018-09-30T00:38:47.977Z,70.30
2018-09-30T00:41:20.281Z,71.45
2018-09-30T00:43:52.557Z,70.78
2018-09-30T00:46:25.068Z,70.41
2018-09-30T00:48:57.457Z,70.69
2018-09-30T00:51:29.687Z,71.83
2018-09-30T00:54:02.353Z,71.09
2018-09-30T00:56:34.576Z,71.44
2018-09-30T00:59:06.896Z,70.19
2018-09-30T01:01:39.315Z,70.56
2018-09-30T01:04:11.548Z,70.22
2018-09-30T01:06:43.885Z,70.86
2018-09-30T01:09:16.229Z,70.97
2018-09-30T01:11:48.731Z,70.44
2018-09-30T01:14:21.045Z,69.96
2018-09-30T01:16:53.418Z,71.44
2018-09-30T01:19:25.781Z,70.89
2018-09-30T01:24:37.004Z,71.96
2018-09-30T01:27:09.250Z,71.63
2018-09-30T01:29:41.495Z,70.97
2018-09-30T01:32:13.716Z,70.53
2018-09-30T01:34:46.021Z,71.31
2018-09-30T01:37:18.268Z,71.30
2018-09-30T01:39:50.544Z,71.49
2018-09-30T01:42:22.800Z,71.96
2018-09-30T01:44:55.052Z,72.52
2018-09-30T01:47:27.284Z,72.70
2018-09-30T01:49:59.549Z,72.33
2018-09-30T01:52:43.112Z,72.07
2018-09-30T01:55:15.573Z,72.51
2018-09-30T01:57:47.826Z,72.93
2018-09-30T02:00:20.121Z,72.30
2018-09-30T02:02:52.378Z,72.82
2018-09-30T02:05:24.677Z,71.64
2018-09-30T02:07:56.928Z,71.92
2018-09-30T02:10:29.208Z,71.88
2018-09-30T02:13:01.627Z,73.14
2018-09-30T02:15:34.020Z,72.63
2018-09-30T02:18:06.340Z,72.25
2018-09-30T02:20:38.628Z,72.42
2018-09-30T02:23:10.975Z,72.19
2018-09-30T02:25:43.285Z,72.46
2018-09-30T02:28:15.569Z,71.75
2018-09-30T02:30:47.889Z,70.67
2018-09-30T02:33:20.137Z,71.56
2018-09-30T02:35:52.448Z,71.67
2018-09-30T02:38:24.712Z,71.68
2018-09-30T02:40:56.984Z,71.63
2018-09-30T02:43:29.380Z,71.97
2018-09-30T02:46:01.644Z,72.33
2018-09-30T02:48:33.936Z,72.56
2018-09-30T02:51:06.228Z,72.88
2018-09-30T02:53:38.476Z,71.68
2018-09-30T02:56:10.763Z,71.74
2018-09-30T02:58:43.049Z,71.52
2018-09-30T03:01:15.374Z,71.21
2018-09-30T03:03:47.689Z,70.74
2018-09-30T03:06:25.632Z,71.23
2018-09-30T03:09:03.723Z,71.32
2018-09-30T03:11:35.947Z,71.70
2018-09-30T03:14:08.197Z,72.98
2018-09-30T03:16:41.085Z,73.58
2018-09-30T03:19:13.964Z,73.21
2018-09-30T03:21:46.301Z,72.65
2018-09-30T03:24:18.522Z,72.07
2018-09-30T03:26:50.896Z,72.89
2018-09-30T03:29:23.257Z,72.46
2018-09-30T03:31:55.526Z,73.32
2018-09-30T03:34:27.787Z,73.12
2018-09-30T03:37:00.149Z,72.66
2018-09-30T03:39:32.448Z,73.12
2018-09-30T03:42:04.700Z,73.01
2018-09-30T03:44:36.952Z,72.72
2018-09-30T03:47:09.350Z,72.39
2018-09-30T03:49:41.634Z,72.27
2018-09-30T03:52:13.933Z,72.04
2018-09-30T03:54:46.257Z,72.76
2018-09-30T03:57:18.570Z,72.65
2018-09-30T03:59:50.820Z,72.94
2018-09-30T04:02:23.148Z,72.86
2018-09-30T04:04:55.405Z,72.42
2018-09-30T04:07:27.683Z,72.59
2018-09-30T04:10:00.114Z,72.01
2018-09-30T04:12:32.385Z,72.67
2018-09-30T04:15:04.734Z,73.12
2018-09-30T04:17:36.966Z,72.63
2018-09-30T04:20:09.350Z,72.23
2018-09-30T04:22:41.616Z,72.69
2018-09-30T04:25:13.914Z,72.16
2018-09-30T04:27:46.174Z,72.49
2018-09-30T04:30:18.433Z,72.76
2018-09-30T04:32:50.677Z,73.19
2018-09-30T04:35:22.944Z,72.71
2018-09-30T04:37:55.185Z,73.09
2018-09-30T04:40:27.473Z,73.53
2018-09-30T04:42:59.754Z,73.17
2018-09-30T04:45:32.065Z,73.84
2018-09-30T04:48:04.356Z,73.42
2018-09-30T04:50:36.696Z,72.72
2018-09-30T04:53:08.959Z,73.64
2018-09-30T04:55:41.278Z,73.98
2018-09-30T04:58:13.631Z,74.23
2018-09-30T05:00:45.888Z,73.43
2018-09-30T05:03:18.168Z,73.84
2018-09-30T05:05:50.478Z,73.61
2018-09-30T05:08:22.741Z,73.83
2018-09-30T05:10:55.065Z,74.66
2018-09-30T05:13:27.417Z,74.55
2018-09-30T05:15:59.740Z,73.79
2018-09-30T05:18:32.291Z,74.21
2018-09-30T05:21:04.532Z,74.08
2018-09-30T05:23:36.776Z,74.78
2018-09-30T05:26:09.061Z,74.74
2018-09-30T05:28:41.355Z,73.64
2018-09-30T05:31:13.753Z,73.78
2018-09-30T05:33:46.175Z,73.89
2018-09-30T05:36:18.436Z,73.61
2018-09-30T05:38:50.811Z,73.67
2018-09-30T05:41:23.095Z,73.25
2018-09-30T05:43:55.424Z,73.57
2018-09-30T05:46:27.680Z,74.50
2018-09-30T05:48:59.964Z,74.57
2018-09-30T05:51:32.211Z,74.09
2018-09-30T05:54:04.608Z,73.96
2018-09-30T05:56:36.871Z,74.45
2018-09-30T05:59:09.195Z,74.37
2018-09-30T06:01:41.457Z,73.31
2018-09-30T06:04:13.750Z,73.40
2018-09-30T06:06:46.056Z,72.14
2018-09-30T06:09:18.371Z,71.73
2018-09-30T06:11:50.609Z,70.07
2018-09-30T06:14:22.992Z,68.94
2018-09-30T06:16:55.232Z,66.55
2018-09-30T06:19:27.497Z,66.00
2018-09-30T06:21:59.768Z,63.95
2018-09-30T06:24:32.101Z,61.92
2018-09-30T06:27:04.367Z,60.35
2018-09-30T06:29:36.637Z,58.88
2018-09-30T06:32:08.941Z,57.36
2018-09-30T06:34:41.201Z,56.56
2018-09-30T06:37:13.496Z,56.48
2018-09-30T06:39:45.756Z,54.57
2018-09-30T06:42:18.116Z,53.90
2018-09-30T06:44:50.429Z,53.59
2018-09-30T06:47:22.702Z,54.53
2018-09-30T06:49:54.997Z,54.70
2018-09-30T06:52:27.302Z,55.60
2018-09-30T06:54:59.840Z,54.58
2018-09-30T06:57:32.129Z,54.53
2018-09-30T07:00:04.401Z,55.41
2018-09-30T07:02:36.697Z,55.00
2018-09-30T07:05:08.969Z,54.61
2018-09-30T07:07:41.282Z,54.64
2018-09-30T07:10:13.612Z,54.11
2018-09-30T07:12:45.900Z,53.76
2018-09-30T07:15:18.225Z,53.94
2018-09-30T07:17:50.518Z,53.29
2018-09-30T07:20:23.021Z,52.75
2018-09-30T07:22:55.346Z,52.55
2018-09-30T07:25:27.846Z,51.74
2018-09-30T07:28:00.108Z,52.16
2018-09-30T07:30:32.346Z,50.67
2018-09-30T07:33:04.648Z,50.83
2018-09-30T07:35:37.045Z,50.83
2018-09-30T07:38:09.486Z,50.10
2018-09-30T07:40:41.826Z,50.31
2018-09-30T07:43:14.314Z,50.22
2018-09-30T07:45:46.728Z,49.51
2018-09-30T07:48:19.261Z,48.56
2018-09-30T07:50:51.533Z,48.59
2018-09-30T07:53:23.816Z,48.58
2018-09-30T07:55:56.152Z,47.91
2018-09-30T07:58:28.493Z,48.32
2018-09-30T08:01:00.876Z,47.91
2018-09-30T08:03:33.167Z,47.44
2018-09-30T08:06:05.661Z,47.56
2018-09-30T08:08:37.940Z,46.35
2018-09-30T08:11:10.193Z,46.49
2018-09-30T08:13:42.716Z,45.80
2018-09-30T08:16:15.018Z,45.38
2018-09-30T08:18:47.373Z,45.59
2018-09-30T08:21:19.669Z,46.85
2018-09-30T08:23:52.035Z,46.85
2018-09-30T08:26:24.298Z,46.12
2018-09-30T08:28:56.632Z,46.32
2018-09-30T08:31:29.038Z,45.73
2018-09-30T08:34:01.397Z,45.00
2018-09-30T08:36:33.651Z,44.20
2018-09-30T08:39:07.219Z,44.49
2018-09-30T08:41:39.540Z,44.73
2018-09-30T08:44:11.979Z,44.60
2018-09-30T08:46:44.348Z,44.32
2018-09-30T08:49:16.696Z,43.51
2018-09-30T08:51:48.961Z,43.69
2018-09-30T08:54:21.293Z,44.15
2018-09-30T08:56:53.603Z,43.11
2018-09-30T08:59:25.876Z,43.65
2018-09-30T09:01:58.172Z,42.79
2018-09-30T09:04:30.530Z,42.01
2018-09-30T09:07:02.865Z,41.84
2018-09-30T09:09:35.214Z,41.53
2018-09-30T09:12:07.551Z,42.40
2018-09-30T09:14:39.939Z,41.26
2018-09-30T09:17:12.249Z,41.33
2018-09-30T09:19:44.649Z,42.61
2018-09-30T09:22:17.126Z,41.93
2018-09-30T09:24:49.456Z,41.79
2018-09-30T09:27:21.882Z,41.93
2018-09-30T09:29:54.165Z,41.46
2018-09-30T09:32:26.568Z,41.49
2018-09-30T09:34:58.948Z,41.32
2018-09-30T09:37:31.293Z,41.72
2018-09-30T09:40:04.833Z,41.88
2018-09-30T09:42:37.278Z,41.22
2018-09-30T09:45:09.627Z,41.58
2018-09-30T09:47:41.952Z,41.59
2018-09-30T09:50:14.246Z,41.25
2018-09-30T09:52:46.524Z,41.91
2018-09-30T09:55:18.833Z,41.49
2018-09-30T09:57:51.202Z,40.92
2018-09-30T10:00:29.037Z,42.12
2018-09-30T10:03:01.361Z,41.62
2018-09-30T10:05:33.703Z,42.47
2018-09-30T10:08:06.188Z,41.83
2018-09-30T10:10:38.758Z,42.86
2018-09-30T10:13:11.113Z,42.06
2018-09-30T10:15:43.498Z,41.05
2018-09-30T10:18:15.797Z,41.86
2018-09-30T10:20:48.180Z,42.20
2018-09-30T10:23:20.608Z,43.01
2018-09-30T10:25:52.971Z,42.87
2018-09-30T10:28:25.324Z,42.47
2018-09-30T10:30:57.667Z,41.75
2018-09-30T10:33:30.005Z,41.78
2018-09-30T10:36:02.404Z,42.31
2018-09-30T10:38:34.857Z,42.88
2018-09-30T10:41:07.003Z,42.41
2018-09-30T10:43:39.340Z,42.01
2018-09-30T10:46:11.676Z,42.79
2018-09-30T10:48:43.987Z,41.48
2018-09-30T10:51:16.405Z,41.89
2018-09-30T10:53:48.735Z,41.93
2018-09-30T10:56:21.073Z,42.09
2018-09-30T10:58:53.540Z,42.27
2018-09-30T11:01:25.805Z,41.31
2018-09-30T11:03:58.134Z,41.35
2018-09-30T11:06:30.424Z,42.28
2018-09-30T11:09:02.914Z,42.40
2018-09-30T11:11:35.245Z,43.06
2018-09-30T11:14:07.511Z,42.09
2018-09-30T11:16:39.826Z,42.65
2018-09-30T11:19:12.249Z,41.41
2018-09-30T11:21:44.809Z,42.01
2018-09-30T11:24:17.197Z,42.41
2018-09-30T11:26:49.527Z,42.50
2018-09-30T11:29:21.887Z,42.83
2018-09-30T11:31:54.233Z,42.25
2018-09-30T11:34:26.474Z,42.02
2018-09-30T11:36:58.853Z,41.66
2018-09-30T11:39:31.276Z,41.09
2018-09-30T11:42:03.640Z,41.75
2018-09-30T11:44:35.973Z,41.42
2018-09-30T11:47:08.307Z,41.47
2018-09-30T11:49:40.603Z,41.92
2018-09-30T11:52:13.010Z,41.68
2018-09-30T11:54:45.342Z,41.89
2018-09-30T11:57:17.699Z,41.22
2018-09-30T11:59:50.091Z,41.30
2018-09-30T12:02:22.688Z,42.37
2018-09-30T12:04:55.118Z,41.72
2018-09-30T12:07:27.545Z,42.07
2018-09-30T12:09:59.973Z,42.37
2018-09-30T12:12:32.288Z,41.47
2018-09-30T12:15:04.786Z,41.61
2018-09-30T12:17:37.119Z,41.87
2018-09-30T12:20:09.470Z,41.54
2018-09-30T12:22:41.875Z,42.41
2018-09-30T12:25:14.268Z,40.98
2018-09-30T12:27:46.681Z,41.19
2018-09-30T12:30:19.077Z,40.91
2018-09-30T12:32:51.481Z,41.66
2018-09-30T12:35:23.932Z,41.52
2018-09-30T12:37:56.379Z,40.12
2018-09-30T12:40:28.694Z,40.31
2018-09-30T12:43:01.184Z,40.68
2018-09-30T12:45:33.465Z,40.09
2018-09-30T12:48:05.821Z,40.35
2018-09-30T12:50:38.181Z,40.47
2018-09-30T12:53:10.551Z,40.79
2018-09-30T12:55:42.867Z,40.71
2018-09-30T12:58:15.214Z,40.22
2018-09-30T13:00:47.517Z,39.99
2018-09-30T13:03:19.857Z,39.81
2018-09-30T13:05:52.266Z,40.13
2018-09-30T13:08:24.603Z,39.98
2018-09-30T13:10:56.941Z,39.83
2018-09-30T13:13:29.499Z,39.70
2018-09-30T13:16:02.064Z,39.95
2018-09-30T13:18:34.392Z,40.14
2018-09-30T13:21:06.753Z,40.03
2018-09-30T13:23:39.102Z,39.91
2018-09-30T13:26:11.404Z,40.24
2018-09-30T13:28:43.718Z,40.08
2018-09-30T13:31:16.806Z,39.87
2018-09-30T13:33:49.170Z,40.22
2018-09-30T13:36:21.493Z,40.01
2018-09-30T13:38:53.850Z,39.93
2018-09-30T13:41:26.220Z,40.20
2018-09-30T13:43:58.473Z,39.47
2018-09-30T13:46:30.823Z,40.43
2018-09-30T13:49:03.159Z,40.10
2018-09-30T13:51:35.457Z,40.36
2018-09-30T13:54:07.803Z,40.93
2018-09-30T13:56:40.169Z,40.18
2018-09-30T13:59:12.598Z,40.03
2018-09-30T14:01:45.054Z,40.26
2018-09-30T14:04:17.350Z,41.31
2018-09-30T14:06:49.697Z,40.57
2018-09-30T14:09:22.040Z,40.04
2018-09-30T14:11:54.387Z,40.71
2018-09-30T14:14:26.978Z,40.46
2018-09-30T14:16:59.268Z,41.60
2018-09-30T14:19:31.765Z,40.92
2018-09-30T14:22:04.233Z,41.20
2018-09-30T14:24:36.543Z,41.12
2018-09-30T14:27:09.002Z,40.40
2018-09-30T14:29:41.225Z,40.94
2018-09-30T14:32:13.553Z,41.11
2018-09-30T14:34:45.876Z,41.16
2018-09-30T14:37:18.254Z,41.16
2018-09-30T14:39:50.536Z,42.08
2018-09-30T14:42:22.912Z,41.39
2018-09-30T14:44:55.221Z,42.08
2018-09-30T14:47:27.600Z,42.03
2018-09-30T14:49:59.884Z,41.53
2018-09-30T14:52:32.262Z,42.38
2018-09-30T14:55:04.593Z,41.96
2018-09-30T14:57:36.990Z,42.23
2018-09-30T15:00:09.325Z,42.69
2018-09-30T15:02:41.625Z,42.43
2018-09-30T15:05:14.010Z,43.10
2018-09-30T15:07:46.296Z,43.52
2018-09-30T15:10:18.625Z,42.96
2018-09-30T15:12:50.960Z,43.27
2018-09-30T15:15:23.299Z,43.28
2018-09-30T15:17:55.642Z,43.19
2018-09-30T15:20:28.008Z,42.93
2018-09-30T15:23:00.354Z,43.33
2018-09-30T15:25:32.674Z,43.86
2018-09-30T15:28:05.401Z,43.50
2018-09-30T15:30:37.704Z,42.65
2018-09-30T15:33:10.087Z,42.83
2018-09-30T15:35:42.439Z,42.26
2018-09-30T15:38:14.717Z,42.71
2018-09-30T15:40:47.022Z,42.87
2018-09-30T15:43:19.340Z,42.68
2018-09-30T15:45:51.653Z,42.85
2018-09-30T15:48:23.937Z,42.64
2018-09-30T15:50:56.269Z,42.52
2018-09-30T15:53:28.651Z,41.71
2018-09-30T15:56:01.347Z,42.20
2018-09-30T15:58:33.649Z,42.55
2018-09-30T16:01:05.992Z,42.59
2018-09-30T16:03:38.369Z,43.79
2018-09-30T16:06:10.646Z,43.63
2018-09-30T16:08:42.965Z,43.99
2018-09-30T16:11:15.326Z,44.73
2018-09-30T16:13:47.670Z,45.41
2018-09-30T16:16:20.105Z,46.23
2018-09-30T16:18:52.417Z,47.43
2018-09-30T16:21:24.950Z,46.70
2018-09-30T16:23:57.307Z,47.45
2018-09-30T16:26:29.662Z,48.90
2018-09-30T16:29:02.079Z,49.56
2018-09-30T16:31:34.527Z,50.15
2018-09-30T16:34:06.884Z,50.45
2018-09-30T16:36:39.353Z,50.95
2018-09-30T16:39:11.700Z,52.57
2018-09-30T16:41:44.095Z,52.93
2018-09-30T16:44:16.448Z,53.01
2018-09-30T16:46:48.835Z,53.71
2018-09-30T16:49:21.171Z,53.59
2018-09-30T16:51:53.451Z,54.43
2018-09-30T16:54:25.932Z,55.61
2018-09-30T16:56:58.271Z,55.70
2018-09-30T16:59:30.591Z,55.96
2018-09-30T17:02:02.960Z,56.54
2018-09-30T17:04:35.259Z,56.59
2018-09-30T17:07:07.554Z,57.77
2018-09-30T17:09:40.061Z,57.91
2018-09-30T17:12:12.370Z,57.83
2018-09-30T17:14:44.742Z,58.50
2018-09-30T17:17:17.158Z,58.55
2018-09-30T17:19:49.531Z,58.98
2018-09-30T17:22:21.992Z,59.37
2018-09-30T17:24:54.333Z,59.97
2018-09-30T17:27:26.701Z,59.85
2018-09-30T17:30:00.860Z,60.77
2018-09-30T17:32:33.513Z,61.01
2018-09-30T17:35:05.964Z,60.86
2018-09-30T17:37:38.272Z,61.01
2018-09-30T17:40:10.577Z,61.10
2018-09-30T17:42:42.932Z,61.53
2018-09-30T17:45:15.292Z,61.99
2018-09-30T17:47:47.676Z,62.35
2018-09-30T17:50:20.024Z,62.96
2018-09-30T17:52:52.431Z,62.66
2018-09-30T17:55:24.832Z,63.27
2018-09-30T17:57:57.360Z,63.51
2018-09-30T18:00:30.505Z,63.47
2018-09-30T18:03:02.902Z,63.71
2018-09-30T18:05:35.250Z,63.72
2018-09-30T18:08:07.645Z,63.96
2018-09-30T18:10:40.015Z,63.90
2018-09-30T18:13:12.308Z,63.96
2018-09-30T18:15:44.706Z,64.39
2018-09-30T18:18:17.092Z,64.93
2018-09-30T18:20:49.671Z,65.38
2018-09-30T18:23:22.253Z,65.79
2018-09-30T18:25:54.811Z,66.09
2018-09-30T18:28:27.244Z,65.92
2018-09-30T18:30:59.641Z,65.94
2018-09-30T18:33:32.025Z,66.02
2018-09-30T18:36:04.390Z,66.20
2018-09-30T18:38:37.064Z,66.53
2018-09-30T18:41:09.852Z,65.60
2018-09-30T18:43:42.526Z,65.94
2018-09-30T18:46:15.182Z,65.74
2018-09-30T18:48:47.903Z,65.70
2018-09-30T18:51:20.620Z,66.20
2018-09-30T18:53:53.339Z,66.72
2018-09-30T18:56:26.176Z,66.70
2018-09-30T18:58:58.897Z,67.12
2018-09-30T19:01:31.552Z,67.26
2018-09-30T19:04:04.228Z,67.47
2018-09-30T19:06:36.944Z,67.38
2018-09-30T19:09:09.948Z,67.48
2018-09-30T19:11:42.606Z,68.09
2018-09-30T19:14:15.273Z,68.03
2018-09-30T19:16:47.893Z,68.27
2018-09-30T19:19:20.595Z,68.38
2018-09-30T19:21:53.276Z,68.43
2018-09-30T19:24:25.785Z,68.71
2018-09-30T19:26:58.255Z,68.72
2018-09-30T19:29:30.628Z,69.03
2018-09-30T19:32:03.030Z,68.43
2018-09-30T19:34:35.348Z,68.86
2018-09-30T19:37:07.723Z,68.98
2018-09-30T19:39:40.098Z,69.10
2018-09-30T19:42:12.542Z,69.51
2018-09-30T19:44:44.904Z,69.79
2018-09-30T19:47:17.285Z,69.52
2018-09-30T19:49:49.592Z,69.91
2018-09-30T19:52:22.031Z,69.73
2018-09-30T19:54:54.522Z,69.66
2018-09-30T19:57:26.994Z,69.59
2018-09-30T19:59:59.324Z,69.83
2018-09-30T20:02:31.731Z,70.23
2018-09-30T20:05:04.153Z,69.70
2018-09-30T20:07:36.517Z,69.37
2018-09-30T20:10:08.829Z,70.24
2018-09-30T20:12:41.211Z,69.94
2018-09-30T20:15:13.485Z,70.06
2018-09-30T20:17:45.877Z,70.26
2018-09-30T20:20:18.522Z,70.16
2018-09-30T20:22:50.854Z,70.79
2018-09-30T20:25:23.236Z,70.56
2018-09-30T20:27:55.623Z,70.71
2018-09-30T20:30:27.928Z,71.21
2018-09-30T20:33:00.301Z,70.80
2018-09-30T20:35:32.617Z,71.04
2018-09-30T20:38:05.254Z,71.09
2018-09-30T20:40:38.537Z,71.21
2018-09-30T20:43:10.878Z,70.90
2018-09-30T20:45:43.205Z,71.38
2018-09-30T20:48:15.533Z,72.08
2018-09-30T20:50:47.848Z,72.71
2018-09-30T20:53:20.124Z,73.35
2018-09-30T20:55:52.464Z,73.16
2018-09-30T20:58:24.734Z,73.12
2018-09-30T21:00:57.065Z,73.35
2018-09-30T21:03:29.360Z,73.61
2018-09-30T21:06:08.098Z,73.36
2018-09-30T21:08:40.523Z,73.57
2018-09-30T21:11:12.844Z,73.47
2018-09-30T21:13:45.170Z,73.12
2018-09-30T21:16:17.637Z,73.17
2018-09-30T21:18:50.109Z,72.60
2018-09-30T21:21:22.321Z,72.47
2018-09-30T21:23:54.649Z,72.36
2018-09-30T21:26:27.353Z,72.62
2018-09-30T21:28:59.639Z,72.75
2018-09-30T21:31:31.896Z,72.71
2018-09-30T21:34:04.294Z,72.96
2018-09-30T21:36:36.547Z,72.89
2018-09-30T21:39:09.774Z,73.41
2018-09-30T21:41:42.058Z,73.13
2018-09-30T21:44:14.336Z,72.92
2018-09-30T21:46:46.612Z,72.70
2018-09-30T21:49:18.895Z,72.68
2018-09-30T21:51:51.181Z,73.15
2018-09-30T21:54:23.538Z,73.57
2018-09-30T21:56:55.782Z,74.05
2018-09-30T21:59:28.152Z,74.22
2018-09-30T22:02:00.389Z,74.01
2018-09-30T22:04:32.702Z,73.91
2018-09-30T22:07:04.994Z,73.69
2018-09-30T22:09:37.343Z,73.69
2018-09-30T22:12:09.636Z,74.16
2018-09-30T22:14:41.950Z,74.69
2018-09-30T22:17:14.222Z,74.17
2018-09-30T22:19:46.523Z,74.13
2018-09-30T22:22:18.837Z,73.94
2018-09-30T22:24:51.081Z,73.71
2018-09-30T22:27:23.342Z,74.66
2018-09-30T22:29:55.606Z,74.68
2018-09-30T22:32:27.897Z,75.52
2018-09-30T22:35:00.221Z,75.66
2018-09-30T22:37:32.493Z,75.33
2018-09-30T22:40:05.221Z,75.62
2018-09-30T22:42:38.009Z,76.19
2018-09-30T22:45:10.323Z,75.46
2018-09-30T22:47:42.631Z,75.40
2018-09-30T22:50:15.125Z,75.46
2018-09-30T22:52:47.405Z,74.92
2018-09-30T22:55:19.686Z,75.09
2018-09-30T22:57:51.940Z,74.94
2018-09-30T23:00:24.253Z,75.24
2018-09-30T23:02:56.524Z,74.98
2018-09-30T23:05:28.800Z,75.01
2018-09-30T23:08:01.088Z,74.82
2018-09-30T23:10:33.346Z,75.14
2018-09-30T23:13:05.706Z,74.58
2018-09-30T23:15:38.024Z,75.52
2018-09-30T23:18:10.270Z,75.41
2018-09-30T23:20:42.572Z,75.07
2018-09-30T23:23:14.820Z,75.36
2018-09-30T23:25:47.102Z,75.78
2018-09-30T23:28:19.409Z,74.92
2018-09-30T23:30:51.657Z,75.84
2018-09-30T23:33:23.888Z,75.94
2018-09-30T23:35:56.161Z,75.08
2018-09-30T23:38:28.428Z,75.39
2018-09-30T23:41:00.654Z,75.09
2018-09-30T23:43:32.930Z,75.06
2018-09-30T23:46:05.341Z,75.53
2018-09-30T23:48:37.593Z,74.72
2018-09-30T23:51:10.000Z,75.48
2018-09-30T23:53:42.258Z,75.29
2018-09-30T23:56:14.501Z,74.88
2018-09-30T23:58:46.773Z,74.96
